createdAt,value
2018-08-23T00:00:49.590Z,954.36
2018-08-23T00:01:49.588Z,954.34
2018-08-23T00:02:49.585Z,954.33
2018-08-23T00:03:49.582Z,954.32
2018-08-23T00:04:49.585Z,954.34
2018-08-23T00:05:49.576Z,954.32
2018-08-23T00:06:49.573Z,954.31
2018-08-23T00:07:49.572Z,954.29
2018-08-23T00:08:49.599Z,954.31
2018-08-23T00:09:49.589Z,954.26
2018-08-23T00:10:49.569Z,954.22
2018-08-23T00:11:49.560Z,954.25
2018-08-23T00:12:49.568Z,954.26
2018-08-23T00:13:49.613Z,954.22
2018-08-23T00:14:49.551Z,954.23
2018-08-23T00:15:49.581Z,954.26
2018-08-23T00:16:49.562Z,954.21
2018-08-23T00:17:49.543Z,954.2
2018-08-23T00:18:49.540Z,954.2
2018-08-23T00:19:49.542Z,954.25
2018-08-23T00:20:49.533Z,954.19
2018-08-23T00:21:49.531Z,954.16
2018-08-23T00:22:49.532Z,954.19
2018-08-23T00:23:49.525Z,954.16
2018-08-23T00:24:49.522Z,954.17
2018-08-23T00:25:49.520Z,954.15
2018-08-23T00:26:49.518Z,954.16
2018-08-23T00:27:49.516Z,954.14
2018-08-23T00:28:49.513Z,954.15
2018-08-23T00:29:49.509Z,954.13
2018-08-23T00:30:49.508Z,954.15
2018-08-23T00:31:49.504Z,954.15
2018-08-23T00:32:49.502Z,954.14
2018-08-23T00:33:49.502Z,954.09
2018-08-23T00:34:49.500Z,954.11
2018-08-23T00:35:49.492Z,954.11
2018-08-23T00:36:49.491Z,954.09
2018-08-23T00:37:49.489Z,954.09
2018-08-23T00:38:49.485Z,954.1
2018-08-23T00:39:49.481Z,954.07
2018-08-23T00:40:49.480Z,954.04
2018-08-23T00:41:49.480Z,954.05
2018-08-23T00:42:49.474Z,954.05
2018-08-23T00:43:49.472Z,954.04
2018-08-23T00:44:49.469Z,954.03
2018-08-23T00:45:49.469Z,954.05
2018-08-23T00:46:49.463Z,954.02
2018-08-23T00:47:49.464Z,954.01
2018-08-23T00:48:49.459Z,953.99
2018-08-23T00:49:49.454Z,954.01
2018-08-23T00:50:49.452Z,954.02
2018-08-23T00:51:49.455Z,954.06
2018-08-23T00:52:49.450Z,954.05
2018-08-23T00:53:49.446Z,954.07
2018-08-23T00:54:49.442Z,954.04
2018-08-23T00:55:49.438Z,954.02
2018-08-23T00:56:49.438Z,954
2018-08-23T00:57:49.433Z,953.99
2018-08-23T00:58:49.432Z,953.98
2018-08-23T00:59:49.430Z,953.96
2018-08-23T01:00:49.425Z,953.97
2018-08-23T01:01:49.423Z,953.92
2018-08-23T01:02:49.421Z,953.96
2018-08-23T01:03:49.419Z,953.93
2018-08-23T01:04:49.415Z,953.95
2018-08-23T01:05:49.413Z,953.91
2018-08-23T01:06:49.414Z,953.89
2018-08-23T01:07:49.407Z,953.89
2018-08-23T01:08:49.404Z,953.89
2018-08-23T01:09:49.401Z,953.88
2018-08-23T01:10:49.401Z,953.89
2018-08-23T01:11:49.397Z,953.89
2018-08-23T01:12:49.393Z,953.9
2018-08-23T01:13:49.394Z,953.88
2018-08-23T01:14:49.417Z,953.86
2018-08-23T01:15:49.390Z,953.89
2018-08-23T01:16:49.383Z,953.8
2018-08-23T01:17:49.381Z,953.83
2018-08-23T01:18:49.378Z,953.78
2018-08-23T01:19:49.375Z,953.78
2018-08-23T01:20:49.371Z,953.79
2018-08-23T01:21:49.370Z,953.81
2018-08-23T01:22:49.367Z,953.76
2018-08-23T01:23:49.364Z,953.77
2018-08-23T01:24:49.371Z,953.74
2018-08-23T01:25:49.359Z,953.76
2018-08-23T01:26:49.355Z,953.72
2018-08-23T01:27:49.353Z,953.71
2018-08-23T01:28:49.353Z,953.73
2018-08-23T01:29:49.347Z,953.72
2018-08-23T01:30:49.353Z,953.7
2018-08-23T01:31:49.344Z,953.72
2018-08-23T01:32:49.340Z,953.69
2018-08-23T01:33:49.336Z,953.71
2018-08-23T01:34:49.333Z,953.67
2018-08-23T01:35:49.334Z,953.68
2018-08-23T01:36:49.329Z,953.67
2018-08-23T01:37:49.327Z,953.67
2018-08-23T01:38:49.324Z,953.7
2018-08-23T01:39:49.322Z,953.68
2018-08-23T01:40:49.319Z,953.69
2018-08-23T01:41:49.315Z,953.69
2018-08-23T01:42:49.314Z,953.66
2018-08-23T01:43:49.312Z,953.67
2018-08-23T01:44:49.308Z,953.67
2018-08-23T01:45:49.305Z,953.67
2018-08-23T01:46:49.304Z,953.59
2018-08-23T01:47:49.300Z,953.64
2018-08-23T01:48:49.297Z,953.59
2018-08-23T01:49:49.294Z,953.58
2018-08-23T01:50:49.291Z,953.57
2018-08-23T01:51:49.296Z,953.59
2018-08-23T01:52:49.291Z,953.6
2018-08-23T01:53:49.284Z,953.58
2018-08-23T01:54:49.282Z,953.59
2018-08-23T01:55:49.278Z,953.56
2018-08-23T01:56:49.279Z,953.56
2018-08-23T01:57:49.276Z,953.5
2018-08-23T01:58:49.271Z,953.49
2018-08-23T01:59:49.267Z,953.52
2018-08-23T02:00:49.266Z,953.53
2018-08-23T02:01:49.262Z,953.52
2018-08-23T02:02:49.260Z,953.55
2018-08-23T02:03:49.257Z,953.47
2018-08-23T02:04:49.255Z,953.52
2018-08-23T02:05:49.255Z,953.5
2018-08-23T02:06:49.249Z,953.53
2018-08-23T02:07:49.247Z,953.49
2018-08-23T02:08:49.243Z,953.54
2018-08-23T02:09:49.244Z,953.49
2018-08-23T02:10:49.239Z,953.56
2018-08-23T02:11:49.239Z,953.49
2018-08-23T02:12:49.234Z,953.46
2018-08-23T02:13:49.230Z,953.45
2018-08-23T02:14:49.228Z,953.46
2018-08-23T02:15:49.226Z,953.47
2018-08-23T02:16:49.223Z,953.55
2018-08-23T02:17:49.220Z,953.46
2018-08-23T02:18:49.218Z,953.48
2018-08-23T02:19:49.213Z,953.51
2018-08-23T02:20:49.214Z,953.44
2018-08-23T02:21:49.212Z,953.44
2018-08-23T02:22:49.207Z,953.46
2018-08-23T02:23:49.204Z,953.44
2018-08-23T02:24:49.200Z,953.47
2018-08-23T02:25:49.198Z,953.41
2018-08-23T02:26:49.197Z,953.46
2018-08-23T02:27:49.194Z,953.45
2018-08-23T02:28:49.191Z,953.43
2018-08-23T02:29:49.191Z,953.43
2018-08-23T02:30:49.187Z,953.44
2018-08-23T02:31:49.183Z,953.5
2018-08-23T02:32:49.178Z,953.47
2018-08-23T02:33:49.177Z,953.45
2018-08-23T02:34:49.175Z,953.45
2018-08-23T02:35:49.172Z,953.51
2018-08-23T02:36:49.168Z,953.51
2018-08-23T02:37:49.166Z,953.47
2018-08-23T02:38:49.165Z,953.5
2018-08-23T02:39:49.163Z,953.47
2018-08-23T02:40:49.158Z,953.46
2018-08-23T02:41:49.156Z,953.5
2018-08-23T02:42:49.151Z,953.49
2018-08-23T02:43:49.150Z,953.47
2018-08-23T02:44:49.147Z,953.5
2018-08-23T02:45:49.150Z,953.49
2018-08-23T02:46:49.141Z,953.51
2018-08-23T02:47:49.140Z,953.46
2018-08-23T02:48:49.136Z,953.46
2018-08-23T02:49:49.143Z,953.46
2018-08-23T02:50:49.141Z,953.48
2018-08-23T02:51:49.127Z,953.46
2018-08-23T02:52:49.128Z,953.46
2018-08-23T02:53:49.121Z,953.43
2018-08-23T02:54:49.118Z,953.45
2018-08-23T02:55:49.139Z,953.42
2018-08-23T02:56:49.116Z,953.42
2018-08-23T02:57:49.110Z,953.43
2018-08-23T02:58:49.108Z,953.39
2018-08-23T02:59:49.108Z,953.42
2018-08-23T03:00:49.104Z,953.42
2018-08-23T03:01:49.107Z,953.39
2018-08-23T03:02:49.102Z,953.41
2018-08-23T03:03:49.095Z,953.41
2018-08-23T03:04:49.090Z,953.41
2018-08-23T03:05:49.088Z,953.39
2018-08-23T03:06:49.089Z,953.38
2018-08-23T03:07:49.085Z,953.43
2018-08-23T03:08:49.080Z,953.4
2018-08-23T03:09:49.076Z,953.4
2018-08-23T03:10:49.073Z,953.41
2018-08-23T03:11:49.070Z,953.42
2018-08-23T03:12:49.068Z,953.41
2018-08-23T03:13:49.068Z,953.4
2018-08-23T03:14:49.063Z,953.44
2018-08-23T03:15:49.059Z,953.42
2018-08-23T03:16:49.055Z,953.4
2018-08-23T03:17:49.054Z,953.42
2018-08-23T03:18:49.051Z,953.43
2018-08-23T03:19:49.046Z,953.44
2018-08-23T03:20:49.044Z,953.41
2018-08-23T03:21:49.042Z,953.42
2018-08-23T03:22:49.041Z,953.39
2018-08-23T03:23:49.035Z,953.46
2018-08-23T03:24:49.035Z,953.39
2018-08-23T03:25:49.029Z,953.4
2018-08-23T03:26:49.026Z,953.39
2018-08-23T03:27:49.022Z,953.39
2018-08-23T03:28:49.020Z,953.36
2018-08-23T03:29:49.017Z,953.36
2018-08-23T03:30:49.012Z,953.36
2018-08-23T03:31:49.011Z,953.35
2018-08-23T03:32:49.010Z,953.33
2018-08-23T03:33:49.003Z,953.34
2018-08-23T03:34:49.000Z,953.33
2018-08-23T03:35:48.997Z,953.33
2018-08-23T03:36:48.995Z,953.33
2018-08-23T03:37:48.991Z,953.3
2018-08-23T03:38:48.989Z,953.34
2018-08-23T03:39:48.984Z,953.4
2018-08-23T03:40:48.982Z,953.34
2018-08-23T03:41:48.986Z,953.44
2018-08-23T03:42:48.975Z,953.36
2018-08-23T03:43:48.972Z,953.37
2018-08-23T03:44:48.968Z,953.38
2018-08-23T03:45:48.966Z,953.35
2018-08-23T03:46:48.961Z,953.36
2018-08-23T03:47:48.959Z,953.38
2018-08-23T03:48:48.955Z,953.35
2018-08-23T03:49:48.954Z,953.4
2018-08-23T03:50:48.949Z,953.36
2018-08-23T03:51:48.948Z,953.36
2018-08-23T03:52:48.944Z,953.37
2018-08-23T03:53:48.941Z,953.4
2018-08-23T03:54:48.937Z,953.37
2018-08-23T03:55:48.937Z,953.38
2018-08-23T03:56:48.933Z,953.35
2018-08-23T03:57:48.928Z,953.35
2018-08-23T03:58:48.925Z,953.37
2018-08-23T03:59:48.920Z,953.38
2018-08-23T04:00:48.918Z,953.34
2018-08-23T04:01:48.915Z,953.35
2018-08-23T04:02:48.911Z,953.36
2018-08-23T04:03:48.907Z,953.35
2018-08-23T04:04:48.904Z,953.33
2018-08-23T04:05:48.902Z,953.31
2018-08-23T04:06:48.898Z,953.35
2018-08-23T04:07:48.897Z,953.33
2018-08-23T04:08:48.891Z,953.32
2018-08-23T04:09:48.888Z,953.31
2018-08-23T04:10:48.885Z,953.33
2018-08-23T04:11:48.881Z,953.38
2018-08-23T04:12:48.877Z,953.34
2018-08-23T04:13:48.875Z,953.35
2018-08-23T04:14:48.872Z,953.35
2018-08-23T04:15:48.869Z,953.36
2018-08-23T04:16:48.872Z,953.34
2018-08-23T04:17:48.866Z,953.37
2018-08-23T04:18:48.862Z,953.38
2018-08-23T04:19:48.857Z,953.32
2018-08-23T04:20:48.851Z,953.36
2018-08-23T04:21:48.848Z,953.4
2018-08-23T04:22:48.952Z,953.36
2018-08-23T04:23:48.842Z,953.34
2018-08-23T04:24:48.837Z,953.36
2018-08-23T04:25:48.834Z,953.35
2018-08-23T04:26:48.831Z,953.32
2018-08-23T04:27:48.828Z,953.36
2018-08-23T04:28:48.824Z,953.34
2018-08-23T04:29:48.821Z,953.35
2018-08-23T04:30:48.818Z,953.36
2018-08-23T04:31:48.815Z,953.34
2018-08-23T04:32:48.810Z,953.37
2018-08-23T04:33:48.811Z,953.35
2018-08-23T04:34:48.805Z,953.31
2018-08-23T04:35:48.802Z,953.34
2018-08-23T04:36:48.796Z,953.32
2018-08-23T04:37:48.794Z,953.32
2018-08-23T04:38:48.792Z,953.3
2018-08-23T04:39:48.787Z,953.33
2018-08-23T04:40:48.785Z,953.31
2018-08-23T04:41:48.781Z,953.3
2018-08-23T04:42:48.780Z,953.32
2018-08-23T04:43:48.773Z,953.27
2018-08-23T04:44:48.773Z,953.31
2018-08-23T04:45:48.769Z,953.3
2018-08-23T04:46:48.767Z,953.33
2018-08-23T04:47:48.763Z,953.31
2018-08-23T04:48:48.760Z,953.28
2018-08-23T04:49:48.757Z,953.27
2018-08-23T04:50:48.752Z,953.34
2018-08-23T04:51:48.881Z,953.29
2018-08-23T04:52:48.747Z,953.28
2018-08-23T04:53:48.745Z,953.25
2018-08-23T04:54:48.739Z,953.23
2018-08-23T04:55:48.737Z,953.28
2018-08-23T04:56:48.737Z,953.28
2018-08-23T04:57:48.730Z,953.28
2018-08-23T04:58:48.727Z,953.22
2018-08-23T04:59:48.725Z,953.24
2018-08-23T05:00:48.723Z,953.22
2018-08-23T05:01:48.717Z,953.26
2018-08-23T05:02:48.714Z,953.25
2018-08-23T05:03:48.713Z,953.28
2018-08-23T05:04:48.710Z,953.26
2018-08-23T05:05:48.705Z,953.26
2018-08-23T05:06:48.702Z,953.24
2018-08-23T05:07:48.701Z,953.27
2018-08-23T05:08:48.699Z,953.25
2018-08-23T05:09:48.695Z,953.24
2018-08-23T05:10:48.690Z,953.27
2018-08-23T05:11:48.690Z,953.26
2018-08-23T05:12:48.684Z,953.26
2018-08-23T05:13:48.680Z,953.27
2018-08-23T05:14:48.679Z,953.26
2018-08-23T05:15:48.677Z,953.27
2018-08-23T05:16:48.672Z,953.26
2018-08-23T05:17:48.672Z,953.23
2018-08-23T05:18:48.667Z,953.28
2018-08-23T05:19:48.664Z,953.25
2018-08-23T05:20:48.661Z,953.25
2018-08-23T05:21:48.657Z,953.24
2018-08-23T05:22:48.655Z,953.2
2018-08-23T05:23:48.652Z,953.23
2018-08-23T05:24:48.650Z,953.22
2018-08-23T05:25:48.649Z,953.2
2018-08-23T05:26:48.644Z,953.2
2018-08-23T05:27:48.641Z,953.18
2018-08-23T05:28:48.639Z,953.17
2018-08-23T05:29:48.644Z,953.17
2018-08-23T05:30:48.633Z,953.17
2018-08-23T05:31:48.631Z,953.18
2018-08-23T05:32:48.629Z,953.19
2018-08-23T05:33:48.625Z,953.2
2018-08-23T05:34:48.625Z,953.17
2018-08-23T05:35:48.620Z,953.19
2018-08-23T05:36:48.618Z,953.19
2018-08-23T05:37:48.618Z,953.19
2018-08-23T05:38:48.611Z,953.18
2018-08-23T05:39:48.609Z,953.2
2018-08-23T05:40:48.607Z,953.17
2018-08-23T05:41:48.605Z,953.17
2018-08-23T05:42:48.602Z,953.17
2018-08-23T05:43:48.599Z,953.17
2018-08-23T05:44:48.598Z,953.15
2018-08-23T05:45:48.594Z,953.16
2018-08-23T05:46:48.592Z,953.15
2018-08-23T05:47:48.616Z,953.14
2018-08-23T05:48:48.588Z,953.16
2018-08-23T05:49:48.585Z,953.14
2018-08-23T05:50:48.583Z,953.15
2018-08-23T05:51:48.580Z,953.15
2018-08-23T05:52:48.578Z,953.16
2018-08-23T05:53:48.581Z,953.14
2018-08-23T05:54:48.576Z,953.13
2018-08-23T05:55:48.572Z,953.11
2018-08-23T05:56:48.568Z,953.16
2018-08-23T05:57:48.567Z,953.14
2018-08-23T05:58:48.566Z,953.12
2018-08-23T05:59:48.563Z,953.11
2018-08-23T06:00:48.562Z,953.14
2018-08-23T06:01:48.561Z,953.14
2018-08-23T06:02:48.640Z,953.14
2018-08-23T06:03:48.554Z,953.15
2018-08-23T06:04:48.559Z,953.12
2018-08-23T06:05:48.550Z,953.18
2018-08-23T06:06:48.549Z,953.15
2018-08-23T06:07:48.546Z,953.14
2018-08-23T06:08:48.544Z,953.16
2018-08-23T06:09:48.543Z,953.17
2018-08-23T06:10:48.540Z,953.14
2018-08-23T06:11:48.538Z,953.16
2018-08-23T06:12:48.540Z,953.17
2018-08-23T06:13:48.534Z,953.15
2018-08-23T06:14:48.533Z,953.18
2018-08-23T06:15:48.531Z,953.16
2018-08-23T06:16:48.533Z,953.16
2018-08-23T06:17:48.527Z,953.14
2018-08-23T06:18:48.532Z,953.13
2018-08-23T06:19:48.524Z,953.18
2018-08-23T06:20:48.522Z,953.11
2018-08-23T06:21:48.520Z,953.15
2018-08-23T06:22:48.520Z,953.14
2018-08-23T06:23:48.519Z,953.14
2018-08-23T06:24:48.516Z,953.13
2018-08-23T06:25:48.515Z,953.16
2018-08-23T06:26:48.512Z,953.15
2018-08-23T06:27:48.512Z,953.18
2018-08-23T06:28:48.511Z,953.13
2018-08-23T06:29:48.508Z,953.16
2018-08-23T06:30:48.508Z,953.13
2018-08-23T06:31:48.506Z,953.14
2018-08-23T06:32:48.622Z,953.14
2018-08-23T06:33:48.562Z,953.13
2018-08-23T06:34:48.502Z,953.11
2018-08-23T06:35:48.500Z,953.14
2018-08-23T06:36:48.498Z,953.16
2018-08-23T06:37:48.497Z,953.13
2018-08-23T06:38:48.606Z,953.14
2018-08-23T06:39:48.495Z,953.1
2018-08-23T06:40:48.493Z,953.15
2018-08-23T06:41:48.493Z,953.15
2018-08-23T06:42:48.491Z,953.13
2018-08-23T06:43:48.488Z,953.14
2018-08-23T06:44:48.488Z,953.11
2018-08-23T06:45:48.485Z,953.11
2018-08-23T06:46:48.485Z,953.11
2018-08-23T06:47:48.482Z,953.13
2018-08-23T06:48:48.506Z,953.12
2018-08-23T06:49:48.480Z,953.13
2018-08-23T06:50:48.481Z,953.16
2018-08-23T06:51:48.479Z,953.15
2018-08-23T06:52:48.480Z,953.16
2018-08-23T06:53:48.480Z,953.16
2018-08-23T06:54:48.476Z,953.18
2018-08-23T06:55:48.476Z,953.18
2018-08-23T06:56:48.477Z,953.15
2018-08-23T06:57:48.478Z,953.13
2018-08-23T06:58:48.483Z,953.1
2018-08-23T06:59:48.479Z,953.14
2018-08-23T07:00:48.479Z,953.14
2018-08-23T07:01:48.480Z,953.12
2018-08-23T07:02:48.481Z,953.11
2018-08-23T07:03:48.485Z,953.12
2018-08-23T07:04:48.487Z,953.12
2018-08-23T07:05:48.488Z,953.11
2018-08-23T07:06:48.568Z,953.12
2018-08-23T07:07:48.496Z,953.1
2018-08-23T07:08:48.499Z,953.14
2018-08-23T07:09:48.503Z,953.11
2018-08-23T07:10:48.507Z,953.05
2018-08-23T07:11:48.541Z,953.13
2018-08-23T07:12:48.517Z,953.15
2018-08-23T07:13:48.522Z,953.17
2018-08-23T07:14:48.527Z,953.18
2018-08-23T07:15:48.531Z,953.2
2018-08-23T07:16:48.538Z,953.21
2018-08-23T07:17:48.662Z,953.15
2018-08-23T07:18:48.550Z,953.23
2018-08-23T07:19:48.558Z,953.31
2018-08-23T07:20:48.564Z,953.37
2018-08-23T07:21:48.570Z,953.46
2018-08-23T07:22:48.578Z,953.53
2018-08-23T07:23:48.584Z,953.62
2018-08-23T07:24:48.593Z,953.79
2018-08-23T07:25:48.601Z,954.15
2018-08-23T07:26:48.632Z,954.23
2018-08-23T07:27:48.616Z,953.86
2018-08-23T07:28:48.623Z,953.29
2018-08-23T07:29:48.667Z,952.96
2018-08-23T07:30:48.640Z,952.97
2018-08-23T07:31:48.649Z,952.96
2018-08-23T07:32:48.655Z,952.97
2018-08-23T07:33:48.664Z,952.91
2018-08-23T07:34:48.672Z,952.95
2018-08-23T07:35:48.680Z,952.93
2018-08-23T07:36:48.687Z,952.94
2018-08-23T07:37:48.695Z,952.95
2018-08-23T07:38:48.704Z,952.92
2018-08-23T07:39:48.710Z,952.93
2018-08-23T07:40:48.719Z,952.96
2018-08-23T07:41:48.725Z,952.95
2018-08-23T07:42:48.732Z,952.96
2018-08-23T07:43:48.741Z,952.96
2018-08-23T07:44:48.749Z,952.98
2018-08-23T07:45:48.757Z,952.98
2018-08-23T07:46:48.762Z,953
2018-08-23T07:47:48.773Z,953.01
2018-08-23T07:48:48.778Z,952.96
2018-08-23T07:49:48.822Z,952.96
2018-08-23T07:50:48.793Z,953.02
2018-08-23T07:51:48.799Z,952.99
2018-08-23T07:52:48.862Z,952.97
2018-08-23T07:53:48.810Z,953.03
2018-08-23T07:54:48.820Z,953
2018-08-23T07:55:48.825Z,953.02
2018-08-23T07:56:48.834Z,953.01
2018-08-23T07:57:48.841Z,953.04
2018-08-23T07:58:48.849Z,952.98
2018-08-23T07:59:48.852Z,952.97
2018-08-23T08:00:48.858Z,952.94
2018-08-23T08:01:48.866Z,952.94
2018-08-23T08:02:48.871Z,952.96
2018-08-23T08:03:48.879Z,952.95
2018-08-23T08:04:48.882Z,952.92
2018-08-23T08:05:48.890Z,952.96
2018-08-23T08:06:48.897Z,952.96
2018-08-23T08:07:48.903Z,952.96
2018-08-23T08:08:48.906Z,952.94
2018-08-23T08:09:48.912Z,952.95
2018-08-23T08:10:48.918Z,952.96
2018-08-23T08:11:48.923Z,952.99
2018-08-23T08:12:48.930Z,952.97
2018-08-23T08:13:48.938Z,952.98
2018-08-23T08:14:49.039Z,952.93
2018-08-23T08:15:48.947Z,952.97
2018-08-23T08:16:48.953Z,953
2018-08-23T08:17:48.958Z,953.01
2018-08-23T08:18:48.963Z,952.98
2018-08-23T08:19:48.970Z,953.05
2018-08-23T08:20:49.030Z,953.01
2018-08-23T08:21:48.982Z,953.01
2018-08-23T08:22:48.987Z,953.03
2018-08-23T08:23:48.992Z,953.03
2018-08-23T08:24:49.000Z,953.01
2018-08-23T08:25:49.004Z,953.02
2018-08-23T08:26:49.008Z,952.99
2018-08-23T08:27:49.013Z,953.03
2018-08-23T08:28:49.019Z,952.99
2018-08-23T08:29:49.025Z,952.99
2018-08-23T08:30:49.030Z,952.97
2018-08-23T08:31:49.036Z,952.99
2018-08-23T08:32:49.042Z,953.01
2018-08-23T08:33:49.047Z,952.99
2018-08-23T08:34:49.051Z,953
2018-08-23T08:35:49.105Z,953.02
2018-08-23T08:36:49.063Z,953.01
2018-08-23T08:37:49.067Z,953.03
2018-08-23T08:38:49.073Z,953.02
2018-08-23T08:39:49.079Z,952.98
2018-08-23T08:40:49.082Z,952.96
2018-08-23T08:41:49.099Z,952.97
2018-08-23T08:42:49.095Z,952.97
2018-08-23T08:43:49.102Z,952.97
2018-08-23T08:44:49.107Z,952.95
2018-08-23T08:45:49.112Z,952.94
2018-08-23T08:46:49.117Z,952.93
2018-08-23T08:47:49.129Z,952.92
2018-08-23T08:48:49.129Z,952.86
2018-08-23T08:49:49.134Z,952.87
2018-08-23T08:50:49.139Z,952.87
2018-08-23T08:51:49.146Z,952.9
2018-08-23T08:52:49.151Z,952.86
2018-08-23T08:53:49.159Z,952.84
2018-08-23T08:54:49.161Z,952.86
2018-08-23T08:55:49.168Z,952.83
2018-08-23T08:56:49.217Z,952.81
2018-08-23T08:57:49.257Z,952.8
2018-08-23T08:58:49.185Z,952.81
2018-08-23T08:59:49.191Z,952.86
2018-08-23T09:00:49.195Z,952.83
2018-08-23T09:01:49.201Z,952.82
2018-08-23T09:02:49.214Z,952.75
2018-08-23T09:03:49.212Z,952.79
2018-08-23T09:04:49.219Z,952.75
2018-08-23T09:05:49.225Z,952.77
2018-08-23T09:06:49.230Z,952.82
2018-08-23T09:07:49.237Z,952.78
2018-08-23T09:08:49.242Z,952.74
2018-08-23T09:09:49.297Z,952.74
2018-08-23T09:10:49.254Z,952.69
2018-08-23T09:11:49.304Z,952.71
2018-08-23T09:12:49.265Z,952.74
2018-08-23T09:13:49.271Z,952.69
2018-08-23T09:14:49.277Z,952.66
2018-08-23T09:15:49.288Z,952.67
2018-08-23T09:16:49.288Z,952.63
2018-08-23T09:17:49.294Z,952.69
2018-08-23T09:18:49.344Z,952.62
2018-08-23T09:19:49.305Z,952.65
2018-08-23T09:20:49.339Z,952.66
2018-08-23T09:21:49.317Z,952.65
2018-08-23T09:22:49.323Z,952.64
2018-08-23T09:23:49.330Z,952.64
2018-08-23T09:24:49.334Z,952.59
2018-08-23T09:25:49.341Z,952.58
2018-08-23T09:26:49.347Z,952.56
2018-08-23T09:27:49.352Z,952.56
2018-08-23T09:28:49.358Z,952.55
2018-08-23T09:29:49.362Z,952.54
2018-08-23T09:30:49.371Z,952.56
2018-08-23T09:31:49.374Z,952.54
2018-08-23T09:32:49.383Z,952.53
2018-08-23T09:33:49.387Z,952.46
2018-08-23T09:34:49.393Z,952.48
2018-08-23T09:35:49.398Z,952.49
2018-08-23T09:36:49.403Z,952.41
2018-08-23T09:37:49.457Z,952.47
2018-08-23T09:38:49.415Z,952.49
2018-08-23T09:39:49.421Z,952.49
2018-08-23T09:40:49.426Z,952.43
2018-08-23T09:41:49.434Z,952.44
2018-08-23T09:42:49.474Z,952.47
2018-08-23T09:43:49.444Z,952.41
2018-08-23T09:44:49.454Z,952.36
2018-08-23T09:45:49.464Z,952.33
2018-08-23T09:46:49.513Z,952.35
2018-08-23T09:47:49.467Z,952.32
2018-08-23T09:48:49.474Z,952.3
2018-08-23T09:49:49.480Z,952.32
2018-08-23T09:50:49.522Z,952.33
2018-08-23T09:51:49.491Z,952.31
2018-08-23T09:52:49.504Z,952.3
2018-08-23T09:53:49.505Z,952.31
2018-08-23T09:54:49.513Z,952.31
2018-08-23T09:55:49.515Z,952.26
2018-08-23T09:56:49.521Z,952.24
2018-08-23T09:57:49.527Z,952.3
2018-08-23T09:58:49.572Z,952.22
2018-08-23T09:59:49.539Z,952.23
2018-08-23T10:00:49.546Z,952.2
2018-08-23T10:01:49.550Z,952.2
2018-08-23T10:02:49.558Z,952.2
2018-08-23T10:03:49.564Z,952.16
2018-08-23T10:04:49.693Z,952.18
2018-08-23T10:05:49.575Z,952.12
2018-08-23T10:06:49.582Z,952.08
2018-08-23T10:07:49.587Z,952.1
2018-08-23T10:08:49.593Z,952.1
2018-08-23T10:09:49.601Z,952.06
2018-08-23T10:10:49.606Z,952.02
2018-08-23T10:11:49.778Z,952.05
2018-08-23T10:12:49.618Z,952.07
2018-08-23T10:13:49.624Z,952.04
2018-08-23T10:14:49.636Z,951.99
2018-08-23T10:15:49.635Z,952
2018-08-23T10:16:49.641Z,951.98
2018-08-23T10:17:49.647Z,952.01
2018-08-23T10:18:49.653Z,951.98
2018-08-23T10:19:49.662Z,952.05
2018-08-23T10:20:49.665Z,951.91
2018-08-23T10:21:49.675Z,951.98
2018-08-23T10:22:49.678Z,951.99
2018-08-23T10:23:49.680Z,951.97
2018-08-23T10:24:49.692Z,951.96
2018-08-23T10:25:49.692Z,951.93
2018-08-23T10:26:49.696Z,951.91
2018-08-23T10:27:49.704Z,951.9
2018-08-23T10:28:49.709Z,951.87
2018-08-23T10:29:49.715Z,951.9
2018-08-23T10:30:49.719Z,951.87
2018-08-23T10:31:49.729Z,951.87
2018-08-23T10:32:49.732Z,951.88
2018-08-23T10:33:49.737Z,951.85
2018-08-23T10:34:49.742Z,951.89
2018-08-23T10:35:49.748Z,951.81
2018-08-23T10:36:49.755Z,951.85
2018-08-23T10:37:49.760Z,951.82
2018-08-23T10:38:49.766Z,951.85
2018-08-23T10:39:49.773Z,951.78
2018-08-23T10:40:49.783Z,951.8
2018-08-23T10:41:49.794Z,951.84
2018-08-23T10:42:49.789Z,951.78
2018-08-23T10:43:49.829Z,951.78
2018-08-23T10:44:49.803Z,951.81
2018-08-23T10:45:49.809Z,951.82
2018-08-23T10:46:49.817Z,951.75
2018-08-23T10:47:49.823Z,951.75
2018-08-23T10:48:49.830Z,951.7
2018-08-23T10:49:49.833Z,951.7
2018-08-23T10:50:49.939Z,951.77
2018-08-23T10:51:49.850Z,951.79
2018-08-23T10:52:49.855Z,951.77
2018-08-23T10:53:49.861Z,951.75
2018-08-23T10:54:49.866Z,951.76
2018-08-23T10:55:49.875Z,951.67
2018-08-23T10:56:49.881Z,951.67
2018-08-23T10:57:49.887Z,951.67
2018-08-23T10:58:49.894Z,951.7
2018-08-23T10:59:49.901Z,951.65
2018-08-23T11:00:49.907Z,951.59
2018-08-23T11:01:49.914Z,951.58
2018-08-23T11:02:49.922Z,951.62
2018-08-23T11:03:49.929Z,951.64
2018-08-23T11:04:49.935Z,951.55
2018-08-23T11:05:49.943Z,951.64
2018-08-23T11:06:49.951Z,951.62
2018-08-23T11:07:49.957Z,951.6
2018-08-23T11:08:49.970Z,951.66
2018-08-23T11:09:50.019Z,951.59
2018-08-23T11:10:49.979Z,951.54
2018-08-23T11:11:49.990Z,951.59
2018-08-23T11:12:49.995Z,951.51
2018-08-23T11:13:50.002Z,951.59
2018-08-23T11:14:50.009Z,951.55
2018-08-23T11:15:50.017Z,951.6
2018-08-23T11:16:50.047Z,951.56
2018-08-23T11:17:50.031Z,951.56
2018-08-23T11:18:50.038Z,951.54
2018-08-23T11:19:50.047Z,951.52
2018-08-23T11:20:50.054Z,951.51
2018-08-23T11:21:50.059Z,951.5
2018-08-23T11:22:50.069Z,951.47
2018-08-23T11:23:50.076Z,951.45
2018-08-23T11:24:50.083Z,951.49
2018-08-23T11:25:50.090Z,951.51
2018-08-23T11:26:50.098Z,951.49
2018-08-23T11:27:50.109Z,951.5
2018-08-23T11:28:50.116Z,951.5
2018-08-23T11:29:50.145Z,951.57
2018-08-23T11:30:50.129Z,951.42
2018-08-23T11:31:50.139Z,951.35
2018-08-23T11:32:50.145Z,951.34
2018-08-23T11:33:50.154Z,951.38
2018-08-23T11:34:50.160Z,951.31
2018-08-23T11:35:50.171Z,951.37
2018-08-23T11:36:50.179Z,951.39
2018-08-23T11:37:50.184Z,951.37
2018-08-23T11:38:50.197Z,951.38
2018-08-23T11:39:50.202Z,951.38
2018-08-23T11:40:50.215Z,951.45
2018-08-23T11:41:50.217Z,951.46
2018-08-23T11:42:50.313Z,951.42
2018-08-23T11:43:50.233Z,951.4
2018-08-23T11:44:50.242Z,951.39
2018-08-23T11:45:50.250Z,951.39
2018-08-23T11:46:50.258Z,951.44
2018-08-23T11:47:50.266Z,951.41
2018-08-23T11:48:50.377Z,951.41
2018-08-23T11:49:50.283Z,951.39
2018-08-23T11:50:50.290Z,951.42
2018-08-23T11:51:50.301Z,951.4
2018-08-23T11:52:50.304Z,951.41
2018-08-23T11:53:50.405Z,951.39
2018-08-23T11:54:50.321Z,951.35
2018-08-23T11:55:50.329Z,951.27
2018-08-23T11:56:50.338Z,951.28
2018-08-23T11:57:50.372Z,951.31
2018-08-23T11:58:50.353Z,951.33
2018-08-23T11:59:50.375Z,951.28
2018-08-23T12:00:50.371Z,951.27
2018-08-23T12:01:50.385Z,951.24
2018-08-23T12:02:50.388Z,951.18
2018-08-23T12:03:50.393Z,951.21
2018-08-23T12:04:50.401Z,951.19
2018-08-23T12:05:50.408Z,951.18
2018-08-23T12:06:50.417Z,951.16
2018-08-23T12:07:50.426Z,951.19
2018-08-23T12:08:50.434Z,951.15
2018-08-23T12:09:50.497Z,951.16
2018-08-23T12:10:50.450Z,951.2
2018-08-23T12:11:50.459Z,951.18
2018-08-23T12:12:50.466Z,951.17
2018-08-23T12:13:50.511Z,951.18
2018-08-23T12:14:50.481Z,951.18
2018-08-23T12:15:50.581Z,951.17
2018-08-23T12:16:50.497Z,951.17
2018-08-23T12:17:50.506Z,951.15
2018-08-23T12:18:50.514Z,951.17
2018-08-23T12:19:50.521Z,951.17
2018-08-23T12:20:50.529Z,951.2
2018-08-23T12:21:50.536Z,951.19
2018-08-23T12:22:50.543Z,951.14
2018-08-23T12:23:50.552Z,951.15
2018-08-23T12:24:50.560Z,951.16
2018-08-23T12:25:50.651Z,951.16
2018-08-23T12:26:50.574Z,951.15
2018-08-23T12:27:50.583Z,951.18
2018-08-23T12:28:50.589Z,951.18
2018-08-23T12:29:50.599Z,951.15
2018-08-23T12:30:50.604Z,951.19